Time;durP1;ratioP1;P1;durP2;ratioP2;P2;SDS_P1;SDS_P2;PMS_P1;PMS_P2;Temp;Humidity;BMP_temperature;BMP_pressure;BME280_temperature;BME280_humidity;BME280_pressure;Samples;Min_cycle;Max_cycle;Signal;HPM_P1;HPM_P2
2020/12/21 06:21:25;;;;;;;69.93;35.27;;;;;;;1.65;94.82;100199.59;1714358;80;21281;-64
2020/12/21 06:23:55;;;;;;;72.97;37.73;;;;;;;1.62;93.63;100206.34;1697689;82;21170;-61
2020/12/21 06:26:37;;;;;;;67.13;35.90;;;;;;;1.55;92.40;100208.58;1665560;85;21186;-50
2020/12/21 06:29:15;;;;;;;73.37;38.17;;;;;;;1.43;92.37;100208.19;1690921;85;21182;-51
2020/12/21 06:31:54;;;;;;;70.83;38.35;;;;;;;1.32;91.54;100210.33;1690371;83;21320;-61
2020/12/21 06:34:37;;;;;;;70.77;36.77;;;;;;;1.14;91.45;100202.59;1696281;83;21229;-52
2020/12/21 06:37:24;;;;;;;74.97;36.87;;;;;;;0.99;91.36;100205.05;1688803;83;22289;-58
2020/12/21 06:40:04;;;;;;;77.47;37.87;;;;;;;0.76;91.71;100200.25;1698911;84;21616;-51
2020/12/21 06:42:35;;;;;;;80.57;40.77;;;;;;;0.56;92.45;100209.46;1698741;84;21201;-52
2020/12/21 06:45:35;;;;;;;81.73;40.20;;;;;;;0.46;93.37;100211.05;1637618;84;21360;-51
2020/12/21 06:48:05;;;;;;;89.57;39.77;;;;;;;0.45;94.66;100227.09;1669097;84;21150;-48
2020/12/21 06:50:41;;;;;;;78.57;39.93;;;;;;;0.52;94.91;100215.83;1687689;85;21218;-56
2020/12/21 06:53:20;;;;;;;75.93;38.97;;;;;;;0.51;94.94;100220.17;1689140;84;21241;-54
2020/12/21 06:55:55;;;;;;;71.97;39.33;;;;;;;0.45;94.84;100215.42;1700322;84;21209;-54
2020/12/21 06:58:37;;;;;;;74.53;38.93;;;;;;;0.36;94.95;100220.45;1668309;84;21764;-54
2020/12/21 07:01:09;;;;;;;72.30;36.45;;;;;;;0.26;95.60;100216.37;1691203;84;21648;-53
2020/12/21 07:03:39;;;;;;;82.57;38.63;;;;;;;0.20;95.94;100223.30;1693496;84;21217;-50
2020/12/21 07:06:08;;;;;;;74.43;38.60;;;;;;;0.22;96.40;100221.41;1693047;84;21213;-50
2020/12/21 07:08:40;;;;;;;68.03;36.13;;;;;;;0.32;97.33;100228.09;1693353;84;21299;-54
2020/12/21 07:11:18;;;;;;;76.83;39.03;;;;;;;0.47;97.58;100220.05;1689118;85;21223;-56
2020/12/21 07:14:00;;;;;;;77.77;37.37;;;;;;;0.68;97.55;100219.42;1691147;84;21161;-55
2020/12/21 07:16:34;;;;;;;71.30;38.03;;;;;;;0.89;96.26;100222.23;1707153;82;21184;-57
2020/12/21 07:19:05;;;;;;;74.43;37.20;;;;;;;0.94;95.11;100221.43;1690322;83;21215;-61
2020/12/21 07:21:34;;;;;;;76.90;39.18;;;;;;;1.00;94.42;100216.61;1692315;83;21185;-59
2020/12/21 07:24:08;;;;;;;77.40;40.60;;;;;;;0.99;93.91;100227.12;1695645;84;21834;-52
2020/12/21 07:26:47;;;;;;;78.50;39.10;;;;;;;0.92;93.42;100216.36;1662837;85;21368;-58
2020/12/21 07:29:24;;;;;;;75.70;38.33;;;;;;;0.86;93.22;100228.49;1667537;84;21208;-63
2020/12/21 07:32:30;;;;;;;70.17;35.50;;;;;;;0.84;93.40;100220.44;1691912;85;21204;-58
2020/12/21 07:35:17;;;;;;;72.67;38.00;;;;;;;0.85;92.94;100226.81;1691860;83;21367;-50
2020/12/21 07:37:56;;;;;;;74.30;37.08;;;;;;;0.84;93.21;100225.16;1690943;84;21199;-59
2020/12/21 07:40:52;;;;;;;77.97;40.97;;;;;;;0.94;93.99;100220.95;1678498;84;21224;-59
2020/12/21 07:43:47;;;;;;;70.10;37.47;;;;;;;1.06;93.08;100227.02;1696432;83;21163;-58
2020/12/21 07:47:16;;;;;;;75.57;38.67;;;;;;;1.10;91.89;100218.06;1684242;83;21174;-58
2020/12/21 07:50:23;;;;;;;75.17;37.23;;;;;;;1.09;92.47;100216.86;1703239;83;21194;-58
2020/12/21 07:52:56;;;;;;;75.20;37.60;;;;;;;1.25;92.79;100212.17;1698104;83;21161;-56
2020/12/21 07:55:56;;;;;;;72.90;35.83;;;;;;;1.29;91.13;100205.34;1680981;84;21583;-55
2020/12/21 07:58:28;;;;;;;75.53;35.10;;;;;;;1.24;90.90;100215.25;1683125;84;21178;-50
2020/12/21 08:04:17;;;;;;;71.07;35.67;;;;;;;1.36;91.34;100213.97;1668659;85;21308;-61
2020/12/21 08:06:48;;;;;;;76.40;38.67;;;;;;;1.53;91.28;100208.33;1689168;83;21331;-53
2020/12/21 08:09:32;;;;;;;79.70;40.70;;;;;;;1.69;90.78;100220.98;1665182;84;21178;-53
2020/12/21 08:12:25;;;;;;;92.07;45.63;;;;;;;1.82;90.22;100216.02;1666693;85;21182;-66
2020/12/21 08:15:27;;;;;;;86.50;42.30;;;;;;;1.95;89.56;100217.66;1663227;84;21188;-55
2020/12/21 08:18:01;;;;;;;83.17;41.60;;;;;;;2.05;89.08;100210.33;1691730;83;21166;-64
2020/12/21 08:21:07;;;;;;;87.90;40.70;;;;;;;2.11;88.48;100212.44;1626870;87;21210;-52
2020/12/21 08:23:39;;;;;;;94.03;46.97;;;;;;;2.10;86.80;100210.80;1642423;86;21402;-55
2020/12/21 08:26:16;;;;;;;78.70;39.30;;;;;;;1.95;86.46;100218.52;1691084;84;21173;-55
2020/12/21 08:28:49;;;;;;;70.53;35.77;;;;;;;1.72;85.76;100203.84;1696242;83;21183;-55
2020/12/21 08:31:36;;;;;;;63.63;32.70;;;;;;;1.49;86.21;100208.20;1692424;84;21224;-55
2020/12/21 08:34:15;;;;;;;70.80;35.13;;;;;;;1.19;86.92;100203.55;1678185;84;21211;-63
2020/12/21 08:36:50;;;;;;;79.20;38.80;;;;;;;1.05;88.47;100209.78;1696871;84;21190;-59
2020/12/21 08:39:24;;;;;;;65.23;31.90;;;;;;;1.02;89.29;100208.70;1675680;84;21257;-54
2020/12/21 08:42:36;;;;;;;61.97;32.63;;;;;;;0.94;88.96;100213.17;1696931;84;21171;-55
2020/12/21 08:45:09;;;;;;;68.13;33.43;;;;;;;0.80;89.92;100208.14;1696509;84;21212;-55
2020/12/21 08:47:46;;;;;;;64.03;32.10;;;;;;;0.89;90.98;100204.06;1697182;84;21165;-55
2020/12/21 08:50:18;;;;;;;58.60;29.07;;;;;;;1.06;91.00;100201.87;1696679;84;21701;-57
2020/12/21 08:52:51;;;;;;;59.40;30.63;;;;;;;1.23;91.06;100199.78;1696990;84;21185;-54
2020/12/21 08:55:22;;;;;;;61.67;30.60;;;;;;;1.36;90.27;100194.48;1695011;84;21739;-56
2020/12/21 08:58:02;;;;;;;59.50;29.03;;;;;;;1.49;89.83;100193.45;1695070;84;22487;-53
2020/12/21 09:00:32;;;;;;;66.77;33.63;;;;;;;1.59;89.46;100196.16;1697748;84;21209;-52
2020/12/21 09:03:02;;;;;;;73.23;32.50;;;;;;;1.62;88.75;100189.92;1694956;83;21412;-48
2020/12/21 09:05:39;;;;;;;69.20;33.70;;;;;;;1.63;88.67;100191.56;1699044;84;21249;-55
2020/12/21 09:08:10;;;;;;;75.50;33.87;;;;;;;1.62;88.09;100192.52;1700183;83;21246;-53
2020/12/21 09:10:41;;;;;;;69.82;35.60;;;;;;;1.55;87.82;100193.46;1699390;84;21678;-54
2020/12/21 09:13:11;;;;;;;67.53;31.83;;;;;;;1.43;87.81;100186.58;1696334;84;21182;-58
2020/12/21 09:15:45;;;;;;;64.77;31.43;;;;;;;1.38;89.15;100188.69;1691761;83;21783;-56
2020/12/21 09:18:15;;;;;;;64.53;31.03;;;;;;;1.37;88.98;100189.64;1692969;85;21245;-54
2020/12/21 09:20:44;;;;;;;57.57;29.93;;;;;;;1.39;89.28;100185.17;1692149;83;21280;-53
2020/12/21 09:23:16;;;;;;;58.17;29.57;;;;;;;1.45;89.27;100175.14;1681857;85;21197;-58
2020/12/21 09:25:45;;;;;;;57.50;28.60;;;;;;;1.49;88.92;100174.41;1696083;82;21195;-53
2020/12/21 09:28:15;;;;;;;55.37;27.17;;;;;;;1.47;89.04;100178.44;1690223;85;21223;-54
2020/12/21 09:30:45;;;;;;;57.83;29.40;;;;;;;1.48;88.97;100177.96;1699611;84;21853;-57
2020/12/21 09:33:19;;;;;;;55.03;28.37;;;;;;;1.52;89.10;100184.11;1690320;83;21195;-62
2020/12/21 09:35:49;;;;;;;54.70;26.90;;;;;;;1.56;88.90;100182.94;1711813;83;21237;-53
2020/12/21 09:38:18;;;;;;;54.40;27.10;;;;;;;1.56;88.01;100179.05;1712398;82;21202;-53
2020/12/21 09:40:49;;;;;;;52.67;25.27;;;;;;;1.45;87.42;100180.34;1713318;83;21247;-57
2020/12/21 09:43:19;;;;;;;54.67;26.70;;;;;;;1.38;87.50;100177.00;1694582;83;21803;-54
2020/12/21 09:45:49;;;;;;;54.97;27.07;;;;;;;1.28;87.00;100183.39;1720069;83;21178;-51
2020/12/21 09:48:21;;;;;;;53.25;27.30;;;;;;;1.14;87.98;100179.21;1720183;83;21347;-59
2020/12/21 09:50:53;;;;;;;52.77;27.50;;;;;;;1.14;88.67;100180.98;1706293;83;21330;-48
2020/12/21 09:53:22;;;;;;;57.50;27.30;;;;;;;1.25;89.69;100182.30;1696592;84;21239;-52
2020/12/21 09:55:54;;;;;;;55.17;28.53;;;;;;;1.31;89.37;100174.87;1694769;83;21649;-60
2020/12/21 09:58:25;;;;;;;60.90;29.07;;;;;;;1.40;89.86;100170.76;1670347;84;21665;-59
2020/12/21 10:00:56;;;;;;;53.38;27.50;;;;;;;1.54;89.78;100173.59;1693289;83;21339;-57
2020/12/21 10:03:27;;;;;;;52.13;26.73;;;;;;;1.70;90.22;100174.06;1665729;84;21340;-56
2020/12/21 10:05:56;;;;;;;49.30;23.83;;;;;;;1.78;89.20;100173.02;1699798;83;21201;-57
2020/12/21 10:08:26;;;;;;;51.90;22.70;;;;;;;1.82;87.75;100170.98;1697291;83;21369;-56
2020/12/21 10:10:55;;;;;;;54.40;24.53;;;;;;;1.74;87.00;100166.39;1705202;82;21184;-56
2020/12/21 10:13:27;;;;;;;49.50;24.00;;;;;;;1.57;86.81;100167.70;1682334;83;21177;-58
2020/12/21 10:16:00;;;;;;;49.50;25.77;;;;;;;1.51;88.14;100160.84;1701038;83;21203;-55
2020/12/21 10:18:34;;;;;;;44.80;23.13;;;;;;;1.65;89.08;100164.50;1712275;82;21182;-60
2020/12/21 10:21:21;;;;;;;45.00;23.40;;;;;;;1.80;87.57;100163.31;1718567;83;21173;-61
2020/12/21 10:24:34;;;;;;;54.37;25.07;;;;;;;1.74;86.77;100158.59;1639282;87;21157;-60
2020/12/21 10:27:04;;;;;;;48.90;24.40;;;;;;;1.65;87.64;100149.37;1643174;86;21202;-54
2020/12/21 10:29:39;;;;;;;49.27;25.37;;;;;;;1.76;88.42;100148.89;1638913;86;21284;-56
2020/12/21 10:32:32;;;;;;;46.70;23.43;;;;;;;1.94;88.17;100157.50;1617007;87;21289;-57
2020/12/21 10:35:07;;;;;;;42.10;22.23;;;;;;;2.04;87.44;100160.55;1638290;87;21229;-58
2020/12/21 10:37:38;;;;;;;44.58;22.77;;;;;;;2.02;86.40;100153.84;1630672;86;21609;-56
2020/12/21 10:40:13;;;;;;;46.20;23.85;;;;;;;2.03;86.65;100152.41;1640140;86;21205;-58
2020/12/21 10:42:49;;;;;;;46.30;23.17;;;;;;;2.09;87.10;100149.80;1643754;86;21205;-60
2020/12/21 10:45:18;;;;;;;45.80;22.07;;;;;;;2.17;87.01;100143.49;1649434;86;21233;-57
2020/12/21 10:47:48;;;;;;;47.77;23.03;;;;;;;2.26;86.30;100136.74;1659945;86;21201;-58
2020/12/21 10:50:20;;;;;;;46.87;24.27;;;;;;;2.32;85.76;100137.55;1659469;86;21252;-61
2020/12/21 10:52:51;;;;;;;49.40;24.30;;;;;;;2.36;85.75;100127.25;1636508;86;21190;-59
2020/12/21 10:55:22;;;;;;;46.20;23.37;;;;;;;2.46;85.60;100126.83;1684577;83;21355;-54
2020/12/21 10:57:51;;;;;;;48.77;23.27;;;;;;;2.55;84.34;100131.78;1695928;84;21188;-56
2020/12/21 11:00:25;;;;;;;45.00;22.97;;;;;;;2.39;83.42;100137.40;1664822;85;21205;-51
2020/12/21 11:02:54;;;;;;;42.93;21.35;;;;;;;2.19;83.25;100129.09;1696369;83;21181;-52
2020/12/21 11:05:26;;;;;;;42.97;22.60;;;;;;;2.07;84.69;100129.59;1661772;83;21162;-56
2020/12/21 11:07:56;;;;;;;45.00;21.77;;;;;;;2.10;85.33;100128.03;1683580;83;21174;-57
2020/12/21 11:10:32;;;;;;;44.13;21.83;;;;;;;2.11;85.06;100121.87;1659147;84;22318;-52
2020/12/21 11:13:03;;;;;;;48.13;22.10;;;;;;;2.17;85.50;100110.97;1673081;83;21192;-55
2020/12/21 11:15:33;;;;;;;46.63;23.27;;;;;;;2.27;85.42;100117.09;1690877;83;22545;-56
2020/12/21 11:18:02;;;;;;;47.20;21.87;;;;;;;2.38;85.16;100110.55;1655587;84;21959;-56
2020/12/21 11:20:37;;;;;;;45.47;20.63;;;;;;;2.44;84.51;100112.30;1693435;82;21299;-56
2020/12/21 11:23:09;;;;;;;44.60;22.10;;;;;;;2.51;83.94;100109.55;1662017;84;21220;-53
2020/12/21 11:25:42;;;;;;;39.47;19.63;;;;;;;2.54;83.90;100111.91;1689472;83;21177;-53
2020/12/21 11:28:20;;;;;;;42.27;21.33;;;;;;;2.53;82.66;100111.56;1673485;84;21198;-56
2020/12/21 11:30:56;;;;;;;46.60;22.27;;;;;;;2.30;82.36;100110.84;1637761;86;21201;-53
2020/12/21 11:33:30;;;;;;;43.73;20.53;;;;;;;2.22;82.90;100108.83;1690872;83;21197;-58
2020/12/21 11:36:01;;;;;;;45.53;20.60;;;;;;;2.25;82.96;100114.28;1697778;83;21199;-54
2020/12/21 11:38:33;;;;;;;43.10;22.40;;;;;;;2.21;82.95;100106.36;1669899;84;21217;-52
2020/12/21 11:41:06;;;;;;;47.87;22.13;;;;;;;2.20;83.21;100109.44;1697306;83;21153;-55
2020/12/21 11:43:36;;;;;;;49.33;24.50;;;;;;;2.17;83.32;100108.85;1697496;83;21578;-53
2020/12/21 11:46:06;;;;;;;53.17;22.37;;;;;;;2.11;83.59;100108.39;1695775;83;21198;-50
2020/12/21 11:48:46;;;;;;;49.47;21.93;;;;;;;2.09;84.45;100104.27;1812133;79;23135;-56
2020/12/21 11:51:19;;;;;;;45.83;21.50;;;;;;;2.13;84.75;100111.72;1766605;80;21154;-60
2020/12/21 11:53:53;;;;;;;44.57;21.77;;;;;;;2.29;84.98;100113.88;1713998;84;22411;-50
2020/12/21 11:56:24;;;;;;;42.13;21.43;;;;;;;2.45;84.28;100108.75;1711847;84;21182;-57
2020/12/21 11:58:58;;;;;;;52.10;24.03;;;;;;;2.57;84.34;100105.96;1714047;84;21174;-55
2020/12/21 12:01:28;;;;;;;51.73;23.50;;;;;;;2.70;83.99;100106.28;1728495;83;21447;-53
2020/12/21 12:03:59;;;;;;;46.80;22.17;;;;;;;2.78;83.67;100109.06;1719127;82;21190;-58
2020/12/21 12:06:30;;;;;;;51.93;23.63;;;;;;;2.82;82.82;100098.75;1760594;81;21564;-58
2020/12/21 12:09:00;;;;;;;46.13;23.07;;;;;;;2.78;82.59;100107.76;1717817;83;21791;-62
2020/12/21 12:11:30;;;;;;;;;;;;;;;2.79;83.10;100109.41;1694886;82;21150;-61
2020/12/21 12:13:59;;;;;;;45.93;21.53;;;;;;;2.83;82.87;100106.42;1773766;80;20144;-60
2020/12/21 12:16:29;;;;;;;49.83;23.93;;;;;;;2.90;82.60;100105.44;1722959;80;21202;-55
2020/12/21 12:18:58;;;;;;;50.40;23.30;;;;;;;2.97;82.37;100098.75;1714972;82;21203;-59
2020/12/21 12:21:28;;;;;;;48.43;23.37;;;;;;;3.04;82.19;100097.30;1715155;83;21230;-59
2020/12/21 12:23:57;;;;;;;48.33;23.27;;;;;;;3.05;80.70;100092.92;1714143;82;21180;-57
2020/12/21 12:26:28;;;;;;;52.95;24.98;;;;;;;2.81;80.50;100088.81;1708976;83;21403;-54
2020/12/21 12:28:58;;;;;;;50.10;24.97;;;;;;;2.57;81.01;100088.22;1700263;82;21207;-55
2020/12/21 12:31:27;;;;;;;41.23;20.47;;;;;;;2.42;81.78;100090.80;1673416;84;21180;-51
2020/12/21 12:33:59;;;;;;;38.00;19.00;;;;;;;2.31;82.12;100089.89;1712789;82;21177;-51
2020/12/21 12:36:29;;;;;;;42.93;20.30;;;;;;;2.22;82.19;100096.30;1755552;82;21204;-48
2020/12/21 12:39:09;;;;;;;44.63;21.37;;;;;;;2.18;82.85;100092.28;1743020;82;21304;-59
2020/12/21 12:41:52;;;;;;;38.67;19.73;;;;;;;2.27;83.26;100093.68;1783034;79;23056;-53
2020/12/21 12:44:27;;;;;;;49.20;24.10;;;;;;;2.20;82.79;100094.31;1689158;83;21351;-62
2020/12/21 12:46:57;;;;;;;47.23;25.23;;;;;;;2.07;82.77;100097.08;1660092;83;21342;-59
2020/12/21 12:49:28;;;;;;;49.07;26.50;;;;;;;2.00;83.58;100105.82;1669596;83;21234;-54
2020/12/21 12:51:58;;;;;;;;;;;;;;;2.07;84.60;100103.10;1678691;84;21205;-53
2020/12/21 12:54:31;;;;;;;42.13;21.35;;;;;;;2.10;84.21;100100.72;1694588;82;20244;-50
2020/12/21 12:57:00;;;;;;;45.73;22.37;;;;;;;1.95;84.09;100100.63;1710470;82;21294;-56
2020/12/21 12:59:30;;;;;;;47.00;22.27;;;;;;;1.79;85.09;100103.64;1711031;82;21609;-54
2020/12/21 13:01:59;;;;;;;41.13;21.17;;;;;;;1.81;85.93;100097.84;1692539;84;21173;-57
2020/12/21 13:04:36;;;;;;;42.47;21.80;;;;;;;1.81;85.67;100105.16;1704101;82;21684;-57
2020/12/21 13:07:07;;;;;;;40.10;20.93;;;;;;;1.76;85.90;100103.87;1728291;80;21189;-56
2020/12/21 13:09:37;;;;;;;43.87;21.87;;;;;;;1.69;86.15;100099.62;1722589;82;21223;-58
2020/12/21 13:12:08;;;;;;;45.77;22.87;;;;;;;1.56;86.79;100102.38;1746650;82;21687;-59
2020/12/21 13:14:39;;;;;;;44.17;23.03;;;;;;;1.47;87.31;100108.75;1759190;80;21212;-52
2020/12/21 13:17:31;;;;;;;42.73;22.67;;;;;;;1.38;88.19;100106.41;1699086;82;21189;-53
2020/12/21 13:20:02;;;;;;;45.60;23.32;;;;;;;1.38;88.83;100109.45;1691831;85;21668;-53
2020/12/21 13:22:32;;;;;;;44.77;22.30;;;;;;;1.32;89.26;100106.41;1701950;82;21677;-51
2020/12/21 13:25:02;;;;;;;37.07;18.83;;;;;;;1.32;90.28;100110.30;1620078;88;21667;-50
2020/12/21 13:27:34;;;;;;;39.67;20.03;;;;;;;1.38;90.33;100096.45;1665600;85;21188;-52
2020/12/21 13:30:17;;;;;;;34.43;16.43;;;;;;;1.38;90.50;100097.75;1697492;83;22273;-55
2020/12/21 13:32:50;;;;;;;33.17;16.57;;;;;;;1.35;90.46;100094.94;1672243;85;22238;-57
2020/12/21 13:35:22;;;;;;;34.53;17.03;;;;;;;1.30;90.86;100098.35;1640986;85;21361;-51
2020/12/21 13:37:57;;;;;;;33.87;17.37;;;;;;;1.22;91.33;100093.76;1606483;87;21301;-56
2020/12/21 13:40:29;;;;;;;34.63;17.93;;;;;;;1.21;92.12;100093.88;1673981;84;21255;-56
2020/12/21 13:43:00;;;;;;;33.25;17.02;;;;;;;1.20;92.48;100098.22;1703130;82;21349;-56
2020/12/21 13:45:31;;;;;;;35.90;16.63;;;;;;;1.21;92.97;100090.81;1686547;84;21339;-53
2020/12/21 13:48:02;;;;;;;31.93;16.77;;;;;;;1.28;92.97;100086.79;1689295;85;21237;-50
2020/12/21 13:50:34;;;;;;;34.93;17.43;;;;;;;1.30;92.91;100079.70;1689368;85;21177;-55
2020/12/21 13:53:04;;;;;;;30.67;14.83;;;;;;;1.41;93.43;100085.36;1699563;82;21195;-54
2020/12/21 13:55:34;;;;;;;25.90;14.10;;;;;;;1.50;92.78;100083.36;1662220;85;21820;-55
2020/12/21 13:58:05;;;;;;;31.50;15.77;;;;;;;1.54;92.40;100083.93;1691500;83;21185;-57
2020/12/21 14:00:34;;;;;;;32.90;15.68;;;;;;;1.58;92.26;100083.58;1686462;84;21363;-54
2020/12/21 14:03:08;;;;;;;33.27;16.77;;;;;;;1.67;92.61;100086.41;1701108;83;21318;-54
2020/12/21 14:05:37;;;;;;;34.87;17.43;;;;;;;1.80;92.17;100084.02;1696309;82;21197;-50
2020/12/21 14:08:07;;;;;;;32.83;17.30;;;;;;;1.92;91.34;100082.21;1689012;85;21142;-51
2020/12/21 14:10:40;;;;;;;33.13;17.35;;;;;;;1.98;90.99;100077.81;1689097;85;21232;-50
2020/12/21 14:13:13;;;;;;;32.10;16.37;;;;;;;2.04;90.51;100079.92;1715542;83;21564;-57
2020/12/21 14:15:43;;;;;;;29.37;15.60;;;;;;;2.12;90.39;100081.45;1723559;82;21233;-54
2020/12/21 14:18:13;;;;;;;27.47;13.30;;;;;;;2.25;89.90;100073.95;1652846;85;21167;-55
2020/12/21 14:20:42;;;;;;;26.10;14.27;;;;;;;2.31;89.22;100074.75;1670639;86;21201;-50
2020/12/21 14:23:16;;;;;;;27.53;15.13;;;;;;;2.28;88.11;100069.78;1649201;86;21218;-51
2020/12/21 14:25:46;;;;;;;27.60;14.93;;;;;;;2.11;87.74;100089.36;1668982;84;21226;-50
2020/12/21 14:28:18;;;;;;;29.30;14.50;;;;;;;2.01;88.23;100088.47;1669654;86;21222;-51
2020/12/21 14:30:47;;;;;;;25.87;13.30;;;;;;;1.91;88.46;100083.16;1678111;84;21212;-50
2020/12/21 14:33:19;;;;;;;32.63;15.93;;;;;;;1.81;89.03;100080.46;1655584;85;21249;-51
2020/12/21 14:35:48;;;;;;;31.27;16.67;;;;;;;1.81;89.47;100080.46;1692644;84;21205;-53
2020/12/21 14:38:21;;;;;;;34.17;18.30;;;;;;;1.82;90.01;100074.30;1676684;85;21209;-57
2020/12/21 14:40:50;;;;;;;27.80;16.03;;;;;;;1.88;90.06;100083.88;1694171;82;21220;-58
2020/12/21 14:43:20;;;;;;;30.47;17.03;;;;;;;1.93;90.12;100080.44;1679265;82;21283;-53
2020/12/21 14:45:51;;;;;;;;;;;;;;;1.93;89.77;100084.34;1684618;85;21545;-59
2020/12/21 14:48:22;;;;;;;29.13;15.90;;;;;;;1.91;90.12;100085.77;1681431;85;20195;-52
2020/12/21 14:50:58;;;;;;;27.90;15.23;;;;;;;1.94;90.24;100082.91;1663286;85;21222;-48
2020/12/21 14:53:29;;;;;;;29.13;14.93;;;;;;;2.03;90.47;100077.45;1714999;82;21320;-62
2020/12/21 14:56:01;;;;;;;40.37;22.40;;;;;;;2.11;90.20;100073.27;1737771;82;21353;-56
2020/12/21 14:58:31;;;;;;;37.40;19.43;;;;;;;2.13;89.60;100062.28;1657271;85;21627;-55
